sensor_id;sensor_type;location;lat;lon;timestamp;pressure;altitude;pressure_sealevel;temperature;humidity
77086;BME280;66014;53.134;18.006;2023-05-07T00:00:08;101848.04;;;7.33;75.47
77086;BME280;66014;53.134;18.006;2023-05-07T00:02:55;101843.59;;;7.27;75.69
77086;BME280;66014;53.134;18.006;2023-05-07T00:05:24;101844.86;;;7.22;75.83
77086;BME280;66014;53.134;18.006;2023-05-07T00:07:50;101843.61;;;7.18;75.98
77086;BME280;66014;53.134;18.006;2023-05-07T00:10:18;101840.23;;;7.15;75.91
77086;BME280;66014;53.134;18.006;2023-05-07T00:12:47;101839.77;;;7.10;76.00
77086;BME280;66014;53.134;18.006;2023-05-07T00:15:14;101839.04;;;7.06;76.06
77086;BME280;66014;53.134;18.006;2023-05-07T00:17:40;101838.52;;;7.01;76.18
77086;BME280;66014;53.134;18.006;2023-05-07T00:20:07;101840.45;;;6.95;76.06
77086;BME280;66014;53.134;18.006;2023-05-07T00:22:35;101839.38;;;6.91;76.31
77086;BME280;66014;53.134;18.006;2023-05-07T00:25:02;101843.40;;;6.87;76.36
77086;BME280;66014;53.134;18.006;2023-05-07T00:27:28;101846.77;;;6.83;76.49
77086;BME280;66014;53.134;18.006;2023-05-07T00:29:55;101844.20;;;6.80;76.33
77086;BME280;66014;53.134;18.006;2023-05-07T00:32:21;101848.34;;;6.77;76.36
77086;BME280;66014;53.134;18.006;2023-05-07T00:34:49;101852.39;;;6.72;76.48
77086;BME280;66014;53.134;18.006;2023-05-07T00:37:17;101850.27;;;6.68;76.45
77086;BME280;66014;53.134;18.006;2023-05-07T00:39:43;101851.90;;;6.64;76.34
77086;BME280;66014;53.134;18.006;2023-05-07T00:42:10;101855.02;;;6.58;76.36
77086;BME280;66014;53.134;18.006;2023-05-07T00:44:36;101855.66;;;6.54;76.57
77086;BME280;66014;53.134;18.006;2023-05-07T00:47:04;101854.12;;;6.49;76.43
77086;BME280;66014;53.134;18.006;2023-05-07T00:49:39;101857.90;;;6.44;76.48
77086;BME280;66014;53.134;18.006;2023-05-07T00:52:09;101860.36;;;6.39;76.52
77086;BME280;66014;53.134;18.006;2023-05-07T00:54:38;101864.74;;;6.35;76.70
77086;BME280;66014;53.134;18.006;2023-05-07T00:57:05;101869.54;;;6.33;76.80
77086;BME280;66014;53.134;18.006;2023-05-07T00:59:32;101870.05;;;6.31;76.94
77086;BME280;66014;53.134;18.006;2023-05-07T01:01:59;101871.30;;;6.29;77.15
77086;BME280;66014;53.134;18.006;2023-05-07T01:04:26;101867.80;;;6.26;76.92
77086;BME280;66014;53.134;18.006;2023-05-07T01:06:54;101862.84;;;6.24;76.91
77086;BME280;66014;53.134;18.006;2023-05-07T01:09:25;101863.58;;;6.21;77.10
77086;BME280;66014;53.134;18.006;2023-05-07T01:11:53;101867.77;;;6.20;76.99
77086;BME280;66014;53.134;18.006;2023-05-07T01:14:20;101870.71;;;6.18;77.04
77086;BME280;66014;53.134;18.006;2023-05-07T01:16:48;101873.36;;;6.16;77.27
77086;BME280;66014;53.134;18.006;2023-05-07T01:19:18;101871.56;;;6.14;77.21
77086;BME280;66014;53.134;18.006;2023-05-07T01:21:46;101866.63;;;6.12;77.34
77086;BME280;66014;53.134;18.006;2023-05-07T01:24:14;101867.52;;;6.10;77.26
77086;BME280;66014;53.134;18.006;2023-05-07T01:26:42;101869.51;;;6.07;77.32
77086;BME280;66014;53.134;18.006;2023-05-07T01:29:09;101870.45;;;6.04;77.27
77086;BME280;66014;53.134;18.006;2023-05-07T01:31:37;101877.66;;;6.00;77.10
77086;BME280;66014;53.134;18.006;2023-05-07T01:34:04;101875.21;;;5.95;77.04
77086;BME280;66014;53.134;18.006;2023-05-07T01:36:34;101876.98;;;5.90;77.06
77086;BME280;66014;53.134;18.006;2023-05-07T01:39:01;101882.52;;;5.84;76.93
77086;BME280;66014;53.134;18.006;2023-05-07T01:41:28;101880.11;;;5.79;77.00
77086;BME280;66014;53.134;18.006;2023-05-07T01:43:55;101885.70;;;5.73;76.90
77086;BME280;66014;53.134;18.006;2023-05-07T01:46:25;101889.73;;;5.66;76.95
77086;BME280;66014;53.134;18.006;2023-05-07T01:48:52;101890.63;;;5.59;77.00
77086;BME280;66014;53.134;18.006;2023-05-07T01:51:19;101892.02;;;5.53;76.99
77086;BME280;66014;53.134;18.006;2023-05-07T01:53:47;101890.39;;;5.48;77.01
77086;BME280;66014;53.134;18.006;2023-05-07T01:56:17;101889.08;;;5.45;77.04
77086;BME280;66014;53.134;18.006;2023-05-07T01:58:46;101888.64;;;5.41;77.06
77086;BME280;66014;53.134;18.006;2023-05-07T02:01:13;101893.39;;;5.39;76.98
77086;BME280;66014;53.134;18.006;2023-05-07T02:03:40;101899.05;;;5.36;77.14
77086;BME280;66014;53.134;18.006;2023-05-07T02:06:07;101898.52;;;5.34;77.11
77086;BME280;66014;53.134;18.006;2023-05-07T02:08:33;101899.88;;;5.32;77.22
77086;BME280;66014;53.134;18.006;2023-05-07T02:11:01;101896.88;;;5.30;77.20
77086;BME280;66014;53.134;18.006;2023-05-07T02:13:32;101898.02;;;5.26;76.95
77086;BME280;66014;53.134;18.006;2023-05-07T02:15:59;101895.63;;;5.23;76.84
77086;BME280;66014;53.134;18.006;2023-05-07T02:18:26;101896.38;;;5.20;76.72
77086;BME280;66014;53.134;18.006;2023-05-07T02:20:52;101900.54;;;5.16;76.96
77086;BME280;66014;53.134;18.006;2023-05-07T02:23:19;101902.76;;;5.13;76.91
77086;BME280;66014;53.134;18.006;2023-05-07T02:25:46;101911.10;;;5.09;77.09
77086;BME280;66014;53.134;18.006;2023-05-07T02:28:12;101910.45;;;5.06;76.95
77086;BME280;66014;53.134;18.006;2023-05-07T02:30:39;101915.11;;;5.02;77.03
77086;BME280;66014;53.134;18.006;2023-05-07T02:33:06;101913.59;;;5.00;76.96
77086;BME280;66014;53.134;18.006;2023-05-07T02:35:34;101913.29;;;4.97;77.05
77086;BME280;66014;53.134;18.006;2023-05-07T02:38:01;101914.55;;;4.94;77.25
77086;BME280;66014;53.134;18.006;2023-05-07T02:40:27;101914.73;;;4.91;77.18
77086;BME280;66014;53.134;18.006;2023-05-07T02:42:54;101920.08;;;4.88;77.08
77086;BME280;66014;53.134;18.006;2023-05-07T02:45:20;101918.91;;;4.84;77.09
77086;BME280;66014;53.134;18.006;2023-05-07T02:47:47;101916.73;;;4.81;76.78
77086;BME280;66014;53.134;18.006;2023-05-07T02:50:13;101915.63;;;4.77;76.63
77086;BME280;66014;53.134;18.006;2023-05-07T02:52:40;101916.27;;;4.72;76.77
77086;BME280;66014;53.134;18.006;2023-05-07T02:55:08;101918.39;;;4.70;76.93
77086;BME280;66014;53.134;18.006;2023-05-07T02:57:34;101917.52;;;4.68;76.95
77086;BME280;66014;53.134;18.006;2023-05-07T03:00:11;101916.77;;;4.66;76.98
77086;BME280;66014;53.134;18.006;2023-05-07T03:02:37;101922.59;;;4.63;76.86
77086;BME280;66014;53.134;18.006;2023-05-07T03:05:05;101919.63;;;4.60;76.95
77086;BME280;66014;53.134;18.006;2023-05-07T03:07:33;101922.92;;;4.58;77.08
77086;BME280;66014;53.134;18.006;2023-05-07T03:10:00;101926.34;;;4.57;77.06
77086;BME280;66014;53.134;18.006;2023-05-07T03:12:26;101928.77;;;4.55;77.00
77086;BME280;66014;53.134;18.006;2023-05-07T03:14:52;101932.94;;;4.56;77.18
77086;BME280;66014;53.134;18.006;2023-05-07T03:17:20;101933.70;;;4.55;76.92
77086;BME280;66014;53.134;18.006;2023-05-07T03:19:47;101939.15;;;4.55;76.97
77086;BME280;66014;53.134;18.006;2023-05-07T03:22:14;101943.51;;;4.56;77.12
77086;BME280;66014;53.134;18.006;2023-05-07T03:24:40;101938.99;;;4.55;77.08
77086;BME280;66014;53.134;18.006;2023-05-07T03:27:07;101942.77;;;4.54;77.24
77086;BME280;66014;53.134;18.006;2023-05-07T03:29:33;101942.30;;;4.53;77.07
77086;BME280;66014;53.134;18.006;2023-05-07T03:32:00;101943.84;;;4.51;77.18
77086;BME280;66014;53.134;18.006;2023-05-07T03:34:27;101942.27;;;4.51;77.06
77086;BME280;66014;53.134;18.006;2023-05-07T03:36:53;101951.39;;;4.51;77.03
77086;BME280;66014;53.134;18.006;2023-05-07T03:39:20;101953.59;;;4.52;77.20
77086;BME280;66014;53.134;18.006;2023-05-07T03:41:46;101960.91;;;4.53;77.22
77086;BME280;66014;53.134;18.006;2023-05-07T03:44:13;101960.09;;;4.55;77.49
77086;BME280;66014;53.134;18.006;2023-05-07T03:46:39;101959.89;;;4.57;77.36
77086;BME280;66014;53.134;18.006;2023-05-07T03:49:06;101958.15;;;4.60;77.27
77086;BME280;66014;53.134;18.006;2023-05-07T03:51:33;101959.73;;;4.62;77.24
77086;BME280;66014;53.134;18.006;2023-05-07T03:53:59;101964.82;;;4.65;77.28
77086;BME280;66014;53.134;18.006;2023-05-07T03:56:26;101969.27;;;4.66;77.16
77086;BME280;66014;53.134;18.006;2023-05-07T03:58:54;101970.07;;;4.68;77.34
77086;BME280;66014;53.134;18.006;2023-05-07T04:01:20;101973.13;;;4.69;77.06
77086;BME280;66014;53.134;18.006;2023-05-07T04:03:47;101973.58;;;4.70;77.23
77086;BME280;66014;53.134;18.006;2023-05-07T04:06:15;101976.48;;;4.71;77.28
77086;BME280;66014;53.134;18.006;2023-05-07T04:08:43;101981.27;;;4.73;76.96
77086;BME280;66014;53.134;18.006;2023-05-07T04:11:10;101984.17;;;4.74;76.96
77086;BME280;66014;53.134;18.006;2023-05-07T04:13:36;101991.44;;;4.76;76.92
77086;BME280;66014;53.134;18.006;2023-05-07T04:16:04;101990.75;;;4.78;76.99
77086;BME280;66014;53.134;18.006;2023-05-07T04:18:31;101992.53;;;4.81;76.83
77086;BME280;66014;53.134;18.006;2023-05-07T04:20:59;101994.94;;;4.84;76.75
77086;BME280;66014;53.134;18.006;2023-05-07T04:23:26;102001.73;;;4.87;76.90
77086;BME280;66014;53.134;18.006;2023-05-07T04:25:52;102001.05;;;4.89;76.67
77086;BME280;66014;53.134;18.006;2023-05-07T04:28:20;102003.55;;;4.94;76.79
77086;BME280;66014;53.134;18.006;2023-05-07T04:30:47;102008.40;;;4.97;76.68
77086;BME280;66014;53.134;18.006;2023-05-07T04:33:14;102011.91;;;5.02;76.66
77086;BME280;66014;53.134;18.006;2023-05-07T04:35:43;102009.13;;;5.06;76.66
77086;BME280;66014;53.134;18.006;2023-05-07T04:38:09;102010.20;;;5.11;76.62
77086;BME280;66014;53.134;18.006;2023-05-07T04:40:36;102008.61;;;5.16;76.57
77086;BME280;66014;53.134;18.006;2023-05-07T04:43:03;102016.33;;;5.21;76.70
77086;BME280;66014;53.134;18.006;2023-05-07T04:45:29;102018.00;;;5.27;76.64
77086;BME280;66014;53.134;18.006;2023-05-07T04:47:56;102021.84;;;5.32;76.32
77086;BME280;66014;53.134;18.006;2023-05-07T04:50:22;102024.05;;;5.38;76.54
77086;BME280;66014;53.134;18.006;2023-05-07T04:52:50;102024.36;;;5.44;76.46
77086;BME280;66014;53.134;18.006;2023-05-07T04:55:17;102026.73;;;5.50;76.18
77086;BME280;66014;53.134;18.006;2023-05-07T04:57:43;102028.49;;;5.54;76.21
77086;BME280;66014;53.134;18.006;2023-05-07T05:00:10;102027.48;;;5.58;76.23
77086;BME280;66014;53.134;18.006;2023-05-07T05:02:40;102028.11;;;5.64;76.27
77086;BME280;66014;53.134;18.006;2023-05-07T05:05:07;102030.27;;;5.71;76.25
77086;BME280;66014;53.134;18.006;2023-05-07T05:07:34;102035.06;;;5.77;76.29
77086;BME280;66014;53.134;18.006;2023-05-07T05:10:01;102036.35;;;5.84;76.02
77086;BME280;66014;53.134;18.006;2023-05-07T05:12:29;102033.71;;;5.91;76.15
77086;BME280;66014;53.134;18.006;2023-05-07T05:14:56;102039.21;;;5.97;76.01
77086;BME280;66014;53.134;18.006;2023-05-07T05:17:23;102043.06;;;6.05;76.06
77086;BME280;66014;53.134;18.006;2023-05-07T05:19:50;102039.50;;;6.12;76.25
77086;BME280;66014;53.134;18.006;2023-05-07T05:22:17;102043.20;;;6.19;76.09
77086;BME280;66014;53.134;18.006;2023-05-07T05:24:44;102048.01;;;6.25;75.86
77086;BME280;66014;53.134;18.006;2023-05-07T05:27:10;102045.88;;;6.32;76.17
77086;BME280;66014;53.134;18.006;2023-05-07T05:29:37;102042.80;;;6.40;76.19
77086;BME280;66014;53.134;18.006;2023-05-07T05:32:03;102048.23;;;6.47;76.06
77086;BME280;66014;53.134;18.006;2023-05-07T05:34:30;102048.47;;;6.55;75.91
77086;BME280;66014;53.134;18.006;2023-05-07T05:36:58;102051.33;;;6.68;75.89
77086;BME280;66014;53.134;18.006;2023-05-07T05:39:25;102048.81;;;6.87;75.51
77086;BME280;66014;53.134;18.006;2023-05-07T05:41:51;102046.73;;;7.11;75.12
77086;BME280;66014;53.134;18.006;2023-05-07T05:44:18;102047.83;;;7.43;74.87
77086;BME280;66014;53.134;18.006;2023-05-07T05:46:45;102052.32;;;7.86;74.41
77086;BME280;66014;53.134;18.006;2023-05-07T05:49:12;102053.14;;;8.52;73.49
77086;BME280;66014;53.134;18.006;2023-05-07T05:51:39;102054.10;;;9.26;72.24
77086;BME280;66014;53.134;18.006;2023-05-07T05:54:06;102055.82;;;10.00;70.84
77086;BME280;66014;53.134;18.006;2023-05-07T05:56:33;102051.43;;;10.69;69.48
77086;BME280;66014;53.134;18.006;2023-05-07T05:58:59;102055.77;;;11.38;68.09
77086;BME280;66014;53.134;18.006;2023-05-07T06:01:26;102057.21;;;12.02;66.94
77086;BME280;66014;53.134;18.006;2023-05-07T06:03:53;102059.25;;;12.62;66.26
77086;BME280;66014;53.134;18.006;2023-05-07T06:06:19;102062.90;;;13.24;65.23
77086;BME280;66014;53.134;18.006;2023-05-07T06:08:45;102063.77;;;13.82;64.02
77086;BME280;66014;53.134;18.006;2023-05-07T06:11:12;102057.80;;;14.39;62.94
77086;BME280;66014;53.134;18.006;2023-05-07T06:13:39;102055.77;;;14.92;61.79
77086;BME280;66014;53.134;18.006;2023-05-07T06:16:06;102054.75;;;15.38;60.88
77086;BME280;66014;53.134;18.006;2023-05-07T06:18:34;102053.98;;;15.91;59.90
77086;BME280;66014;53.134;18.006;2023-05-07T06:21:02;102056.58;;;16.41;58.91
77086;BME280;66014;53.134;18.006;2023-05-07T06:23:29;102056.37;;;16.92;57.64
77086;BME280;66014;53.134;18.006;2023-05-07T06:25:55;102063.37;;;17.50;57.13
77086;BME280;66014;53.134;18.006;2023-05-07T06:28:22;102062.55;;;18.09;55.39
77086;BME280;66014;53.134;18.006;2023-05-07T06:30:48;102059.98;;;18.55;54.42
77086;BME280;66014;53.134;18.006;2023-05-07T06:33:16;102061.73;;;19.04;53.25
77086;BME280;66014;53.134;18.006;2023-05-07T06:35:42;102062.38;;;19.51;51.97
77086;BME280;66014;53.134;18.006;2023-05-07T06:38:09;102062.43;;;19.89;50.98
77086;BME280;66014;53.134;18.006;2023-05-07T06:40:35;102061.42;;;20.20;49.50
77086;BME280;66014;53.134;18.006;2023-05-07T06:43:02;102060.70;;;20.41;48.49
77086;BME280;66014;53.134;18.006;2023-05-07T06:45:29;102065.94;;;20.63;47.94
77086;BME280;66014;53.134;18.006;2023-05-07T06:47:57;102064.02;;;20.89;47.28
77086;BME280;66014;53.134;18.006;2023-05-07T06:50:24;102071.91;;;21.26;46.88
77086;BME280;66014;53.134;18.006;2023-05-07T06:52:50;102072.86;;;21.70;45.70
77086;BME280;66014;53.134;18.006;2023-05-07T06:55:17;102076.17;;;22.07;44.99
77086;BME280;66014;53.134;18.006;2023-05-07T06:57:43;102071.84;;;22.43;43.55
77086;BME280;66014;53.134;18.006;2023-05-07T07:00:10;102074.34;;;22.73;42.54
77086;BME280;66014;53.134;18.006;2023-05-07T07:02:37;102073.08;;;23.05;41.48
77086;BME280;66014;53.134;18.006;2023-05-07T07:05:04;102074.42;;;23.30;40.23
77086;BME280;66014;53.134;18.006;2023-05-07T07:07:30;102080.67;;;23.57;40.06
77086;BME280;66014;53.134;18.006;2023-05-07T07:09:57;102087.95;;;23.90;38.76
77086;BME280;66014;53.134;18.006;2023-05-07T07:12:23;102085.88;;;24.17;38.34
77086;BME280;66014;53.134;18.006;2023-05-07T07:14:54;102085.95;;;24.48;37.33
77086;BME280;66014;53.134;18.006;2023-05-07T07:17:21;102089.52;;;24.86;36.49
77086;BME280;66014;53.134;18.006;2023-05-07T07:19:48;102087.65;;;25.19;35.33
77086;BME280;66014;53.134;18.006;2023-05-07T07:22:15;102086.48;;;25.49;34.47
77086;BME280;66014;53.134;18.006;2023-05-07T07:24:42;102083.01;;;25.83;33.24
77086;BME280;66014;53.134;18.006;2023-05-07T07:27:08;102082.87;;;26.17;32.68
77086;BME280;66014;53.134;18.006;2023-05-07T07:29:35;102081.94;;;26.45;32.06
77086;BME280;66014;53.134;18.006;2023-05-07T07:32:01;102082.65;;;26.66;31.24
77086;BME280;66014;53.134;18.006;2023-05-07T07:34:28;102082.94;;;26.89;30.66
77086;BME280;66014;53.134;18.006;2023-05-07T07:36:54;102085.28;;;27.18;29.44
77086;BME280;66014;53.134;18.006;2023-05-07T07:39:21;102083.45;;;27.41;29.20
77086;BME280;66014;53.134;18.006;2023-05-07T07:41:47;102083.54;;;27.62;28.79
77086;BME280;66014;53.134;18.006;2023-05-07T07:44:14;102085.90;;;27.92;28.25
77086;BME280;66014;53.134;18.006;2023-05-07T07:46:40;102083.65;;;28.32;27.32
77086;BME280;66014;53.134;18.006;2023-05-07T07:49:07;102084.98;;;28.69;26.28
77086;BME280;66014;53.134;18.006;2023-05-07T07:51:33;102085.77;;;28.88;25.57
77086;BME280;66014;53.134;18.006;2023-05-07T07:54:00;102087.73;;;29.06;25.47
77086;BME280;66014;53.134;18.006;2023-05-07T07:56:28;102089.77;;;29.05;23.75
77086;BME280;66014;53.134;18.006;2023-05-07T07:58:55;102088.35;;;28.99;23.88
77086;BME280;66014;53.134;18.006;2023-05-07T08:01:21;102088.77;;;29.05;23.34
77086;BME280;66014;53.134;18.006;2023-05-07T08:03:48;102086.80;;;28.93;21.27
77086;BME280;66014;53.134;18.006;2023-05-07T08:06:14;102082.66;;;28.44;22.01
77086;BME280;66014;53.134;18.006;2023-05-07T08:08:41;102084.45;;;28.40;22.14
77086;BME280;66014;53.134;18.006;2023-05-07T08:11:08;102088.48;;;28.58;22.21
77086;BME280;66014;53.134;18.006;2023-05-07T08:13:34;102090.58;;;28.77;20.97
77086;BME280;66014;53.134;18.006;2023-05-07T08:16:01;102088.53;;;28.63;20.73
77086;BME280;66014;53.134;18.006;2023-05-07T08:18:28;102089.58;;;28.57;20.79
77086;BME280;66014;53.134;18.006;2023-05-07T08:20:55;102088.80;;;28.60;21.08
77086;BME280;66014;53.134;18.006;2023-05-07T08:23:22;102089.52;;;28.96;20.98
77086;BME280;66014;53.134;18.006;2023-05-07T08:25:51;102092.48;;;29.20;20.30
77086;BME280;66014;53.134;18.006;2023-05-07T08:28:18;102088.84;;;29.44;20.63
77086;BME280;66014;53.134;18.006;2023-05-07T08:30:46;102091.60;;;29.83;20.12
77086;BME280;66014;53.134;18.006;2023-05-07T08:33:13;102088.91;;;30.18;20.12
77086;BME280;66014;53.134;18.006;2023-05-07T08:35:39;102093.90;;;30.58;19.61
77086;BME280;66014;53.134;18.006;2023-05-07T08:38:06;102096.23;;;30.79;18.50
77086;BME280;66014;53.134;18.006;2023-05-07T08:40:37;102096.85;;;30.35;17.77
77086;BME280;66014;53.134;18.006;2023-05-07T08:43:07;102097.24;;;29.98;18.63
77086;BME280;66014;53.134;18.006;2023-05-07T08:45:34;102097.73;;;30.00;18.06
77086;BME280;66014;53.134;18.006;2023-05-07T08:48:03;102095.28;;;29.81;18.32
77086;BME280;66014;53.134;18.006;2023-05-07T08:50:35;102095.60;;;29.80;18.51
77086;BME280;66014;53.134;18.006;2023-05-07T08:53:05;102099.80;;;29.90;18.28
77086;BME280;66014;53.134;18.006;2023-05-07T08:55:35;102102.29;;;29.93;18.20
77086;BME280;66014;53.134;18.006;2023-05-07T08:58:01;102100.78;;;30.05;18.35
77086;BME280;66014;53.134;18.006;2023-05-07T09:00:28;102102.50;;;30.09;17.88
77086;BME280;66014;53.134;18.006;2023-05-07T09:02:54;102105.93;;;29.84;17.55
77086;BME280;66014;53.134;18.006;2023-05-07T09:05:21;102103.55;;;29.37;17.70
77086;BME280;66014;53.134;18.006;2023-05-07T09:07:50;102106.55;;;29.31;18.33
77086;BME280;66014;53.134;18.006;2023-05-07T09:10:16;102104.38;;;28.97;17.12
77086;BME280;66014;53.134;18.006;2023-05-07T09:12:43;102101.26;;;28.25;18.28
77086;BME280;66014;53.134;18.006;2023-05-07T09:15:09;102101.88;;;28.31;19.07
77086;BME280;66014;53.134;18.006;2023-05-07T09:17:36;102100.61;;;28.65;19.06
77086;BME280;66014;53.134;18.006;2023-05-07T09:20:05;102098.64;;;29.16;18.47
77086;BME280;66014;53.134;18.006;2023-05-07T09:22:33;102107.00;;;29.27;17.82
77086;BME280;66014;53.134;18.006;2023-05-07T09:25:00;102101.55;;;29.22;18.33
77086;BME280;66014;53.134;18.006;2023-05-07T09:27:26;102100.13;;;29.42;18.23
77086;BME280;66014;53.134;18.006;2023-05-07T09:29:53;102100.48;;;29.29;17.86
77086;BME280;66014;53.134;18.006;2023-05-07T09:32:19;102101.35;;;29.07;18.55
77086;BME280;66014;53.134;18.006;2023-05-07T09:34:46;102094.44;;;29.17;18.54
77086;BME280;66014;53.134;18.006;2023-05-07T09:37:13;102089.04;;;29.41;18.17
77086;BME280;66014;53.134;18.006;2023-05-07T09:39:50;102098.40;;;29.19;17.78
77086;BME280;66014;53.134;18.006;2023-05-07T09:42:23;102097.63;;;28.81;18.13
77086;BME280;66014;53.134;18.006;2023-05-07T09:44:50;102101.11;;;28.80;18.47
77086;BME280;66014;53.134;18.006;2023-05-07T09:47:19;102099.96;;;28.79;18.32
77086;BME280;66014;53.134;18.006;2023-05-07T09:49:48;102095.46;;;28.71;18.46
77086;BME280;66014;53.134;18.006;2023-05-07T09:52:17;102103.02;;;28.83;18.57
77086;BME280;66014;53.134;18.006;2023-05-07T09:54:44;102104.48;;;29.02;18.68
77086;BME280;66014;53.134;18.006;2023-05-07T09:57:11;102107.35;;;29.28;18.73
77086;BME280;66014;53.134;18.006;2023-05-07T09:59:42;102111.90;;;29.30;18.59
77086;BME280;66014;53.134;18.006;2023-05-07T10:02:15;102113.80;;;28.50;18.58
77086;BME280;66014;53.134;18.006;2023-05-07T10:04:44;102119.02;;;28.07;18.41
77086;BME280;66014;53.134;18.006;2023-05-07T10:07:13;102121.10;;;27.47;19.08
77086;BME280;66014;53.134;18.006;2023-05-07T10:09:41;102117.20;;;27.11;19.51
77086;BME280;66014;53.134;18.006;2023-05-07T10:12:10;102115.37;;;27.37;19.89
77086;BME280;66014;53.134;18.006;2023-05-07T10:14:38;102114.80;;;27.75;19.62
77086;BME280;66014;53.134;18.006;2023-05-07T10:17:09;102116.34;;;27.92;19.86
77086;BME280;66014;53.134;18.006;2023-05-07T10:19:44;102116.83;;;28.35;19.56
77086;BME280;66014;53.134;18.006;2023-05-07T10:22:11;102118.83;;;28.61;19.07
77086;BME280;66014;53.134;18.006;2023-05-07T10:24:39;102124.86;;;28.50;18.78
77086;BME280;66014;53.134;18.006;2023-05-07T10:27:09;102124.77;;;28.03;18.71
77086;BME280;66014;53.134;18.006;2023-05-07T10:29:55;102121.92;;;27.77;19.45
77086;BME280;66014;53.134;18.006;2023-05-07T10:32:42;102115.98;;;27.99;19.27
77086;BME280;66014;53.134;18.006;2023-05-07T10:35:16;102119.50;;;28.15;18.75
77086;BME280;66014;53.134;18.006;2023-05-07T10:37:44;102120.04;;;28.24;18.99
77086;BME280;66014;53.134;18.006;2023-05-07T10:40:12;102116.55;;;28.51;18.84
77086;BME280;66014;53.134;18.006;2023-05-07T10:42:39;102116.89;;;28.72;18.83
77086;BME280;66014;53.134;18.006;2023-05-07T10:45:22;102120.31;;;29.07;18.45
77086;BME280;66014;53.134;18.006;2023-05-07T10:50:35;102110.61;;;29.63;17.87
77086;BME280;66014;53.134;18.006;2023-05-07T10:55:49;102110.13;;;28.46;18.69
77086;BME280;66014;53.134;18.006;2023-05-07T10:58:28;102109.91;;;29.10;18.24
77086;BME280;66014;53.134;18.006;2023-05-07T11:01:00;102108.13;;;29.59;18.24
77086;BME280;66014;53.134;18.006;2023-05-07T11:03:28;102111.83;;;30.02;17.77
77086;BME280;66014;53.134;18.006;2023-05-07T11:06:13;102110.86;;;30.10;17.50
77086;BME280;66014;53.134;18.006;2023-05-07T11:11:47;102117.95;;;30.43;17.23
77086;BME280;66014;53.134;18.006;2023-05-07T11:14:17;102120.36;;;30.72;17.38
77086;BME280;66014;53.134;18.006;2023-05-07T11:17:02;102125.16;;;30.75;17.22
77086;BME280;66014;53.134;18.006;2023-05-07T11:19:52;102124.12;;;29.34;17.65
77086;BME280;66014;53.134;18.006;2023-05-07T11:25:02;102131.34;;;31.04;17.25
77086;BME280;66014;53.134;18.006;2023-05-07T11:27:29;102123.45;;;30.17;17.41
77086;BME280;66014;53.134;18.006;2023-05-07T11:29:56;102118.52;;;29.33;18.16
77086;BME280;66014;53.134;18.006;2023-05-07T11:32:32;102120.09;;;30.63;17.62
77086;BME280;66014;53.134;18.006;2023-05-07T11:35:00;102120.64;;;31.55;16.27
77086;BME280;66014;53.134;18.006;2023-05-07T11:37:28;102117.95;;;31.31;16.04
77086;BME280;66014;53.134;18.006;2023-05-07T11:40:06;102116.69;;;29.12;17.54
77086;BME280;66014;53.134;18.006;2023-05-07T11:42:36;102116.11;;;27.27;18.64
77086;BME280;66014;53.134;18.006;2023-05-07T11:45:05;102113.30;;;26.74;19.05
77086;BME280;66014;53.134;18.006;2023-05-07T11:47:35;102117.65;;;28.82;18.51
77086;BME280;66014;53.134;18.006;2023-05-07T11:50:06;102117.23;;;30.53;17.38
77086;BME280;66014;53.134;18.006;2023-05-07T11:52:34;102117.72;;;31.95;16.77
77086;BME280;66014;53.134;18.006;2023-05-07T11:55:01;102115.67;;;32.57;15.93
77086;BME280;66014;53.134;18.006;2023-05-07T11:57:32;102114.35;;;32.78;15.59
77086;BME280;66014;53.134;18.006;2023-05-07T12:00:01;102122.23;;;32.85;15.91
77086;BME280;66014;53.134;18.006;2023-05-07T12:02:30;102126.16;;;34.09;15.56
77086;BME280;66014;53.134;18.006;2023-05-07T12:05:00;102128.52;;;34.81;15.07
77086;BME280;66014;53.134;18.006;2023-05-07T12:07:28;102128.98;;;35.83;13.83
77086;BME280;66014;53.134;18.006;2023-05-07T12:09:56;102130.14;;;33.44;14.73
77086;BME280;66014;53.134;18.006;2023-05-07T12:12:22;102129.02;;;31.29;16.20
77086;BME280;66014;53.134;18.006;2023-05-07T12:14:50;102126.38;;;29.70;16.90
77086;BME280;66014;53.134;18.006;2023-05-07T12:17:16;102116.80;;;28.50;17.57
77086;BME280;66014;53.134;18.006;2023-05-07T12:19:44;102120.75;;;29.22;17.42
77086;BME280;66014;53.134;18.006;2023-05-07T12:22:13;102116.92;;;30.18;16.95
77086;BME280;66014;53.134;18.006;2023-05-07T12:24:50;102109.67;;;30.77;16.49
77086;BME280;66014;53.134;18.006;2023-05-07T12:27:22;102113.87;;;29.07;17.21
77086;BME280;66014;53.134;18.006;2023-05-07T12:29:50;102118.19;;;29.83;17.34
77086;BME280;66014;53.134;18.006;2023-05-07T12:32:19;102121.52;;;31.49;16.62
77086;BME280;66014;53.134;18.006;2023-05-07T12:34:50;102114.70;;;32.39;15.68
77086;BME280;66014;53.134;18.006;2023-05-07T12:37:23;102115.16;;;33.58;15.06
77086;BME280;66014;53.134;18.006;2023-05-07T12:40:04;102114.55;;;34.06;14.56
77086;BME280;66014;53.134;18.006;2023-05-07T12:42:35;102118.73;;;32.87;14.30
77086;BME280;66014;53.134;18.006;2023-05-07T12:45:13;102117.27;;;32.52;14.98
77086;BME280;66014;53.134;18.006;2023-05-07T12:47:47;102130.13;;;31.05;15.45
77086;BME280;66014;53.134;18.006;2023-05-07T12:50:15;102121.77;;;31.06;15.07
77086;BME280;66014;53.134;18.006;2023-05-07T12:52:47;102122.77;;;31.59;14.96
77086;BME280;66014;53.134;18.006;2023-05-07T12:55:15;102126.39;;;32.25;14.45
77086;BME280;66014;53.134;18.006;2023-05-07T12:57:43;102114.30;;;32.51;14.35
77086;BME280;66014;53.134;18.006;2023-05-07T13:00:12;102114.96;;;32.79;13.82